Time;durP1;ratioP1;P1;durP2;ratioP2;P2;SDS_P1;SDS_P2;PMS_P1;PMS_P2;Temp;Humidity;BMP_temperature;BMP_pressure;BME280_temperature;BME280_humidity;BME280_pressure;Samples;Min_cycle;Max_cycle;Signal;HPM_P1;HPM_P2
2023/03/06 00:01:04;;;;;;;13.27;9.00;;;5.40;99.90;;;4.44;84.90;100960.72;4187214;28;20020;-83
2023/03/06 00:03:05;;;;;;;12.85;8.65;;;5.40;99.90;;;4.39;85.01;100954.16;4186297;28;20060;-82
2023/03/06 00:05:06;;;;;;;14.10;8.15;;;5.40;99.90;;;4.32;84.80;100930.25;4183167;28;20033;-82
2023/03/06 00:07:07;;;;;;;12.90;8.40;;;5.40;99.90;;;4.35;85.22;100943.09;4186190;28;20036;-82
2023/03/06 00:09:09;;;;;;;16.73;9.75;;;5.40;99.90;;;4.37;84.94;100937.75;4187185;28;20167;-83
2023/03/06 00:11:13;;;;;;;16.20;9.93;;;5.40;99.90;;;4.33;85.55;100929.28;4196191;28;20111;-82
2023/03/06 00:13:18;;;;;;;12.63;8.68;;;5.40;99.90;;;4.34;85.48;100932.75;4186723;28;20048;-83
2023/03/06 00:15:19;;;;;;;;;;;5.40;99.90;;;4.29;85.77;100927.88;4190665;28;20428;-82
2023/03/06 00:17:20;;;;;;;14.30;8.32;;;5.40;99.90;;;4.32;86.36;100926.81;4199337;28;19908;-82
2023/03/06 00:19:22;;;;;;;17.50;9.75;;;5.40;99.90;;;4.41;86.48;100944.41;4191701;28;20037;-82
2023/03/06 00:21:23;;;;;;;16.38;9.32;;;5.40;99.90;;;4.30;87.09;100939.16;4185812;28;20025;-82
2023/03/06 00:23:26;;;;;;;13.55;8.45;;;5.40;99.90;;;4.28;86.86;100930.56;4185563;28;20519;-82
2023/03/06 00:25:27;;;;;;;16.40;10.18;;;5.40;99.90;;;4.36;87.07;100942.13;4185742;28;20040;-82
2023/03/06 00:27:30;;;;;;;16.90;9.68;;;5.40;99.90;;;4.20;87.50;100920.69;4193711;28;20059;-82
2023/03/06 00:29:31;;;;;;;16.40;9.77;;;5.30;99.90;;;4.25;87.75;100923.81;4187022;28;20092;-82
2023/03/06 00:31:32;;;;;;;16.60;9.85;;;5.30;99.90;;;4.22;87.90;100924.03;4190953;28;20021;-82
2023/03/06 00:33:33;;;;;;;18.40;10.02;;;5.30;99.90;;;4.37;88.08;100943.81;4194053;28;20028;-82
2023/03/06 00:35:34;;;;;;;18.20;10.43;;;5.30;99.90;;;4.38;87.97;100936.81;4186354;28;20025;-82
2023/03/06 00:37:35;;;;;;;19.42;10.40;;;5.30;99.90;;;4.35;88.11;100931.81;4215375;28;20487;-82
2023/03/06 00:39:36;;;;;;;18.40;11.30;;;5.30;99.90;;;4.24;88.30;100916.09;4185469;28;20100;-82
2023/03/06 00:41:37;;;;;;;17.45;9.48;;;5.30;99.90;;;4.33;88.19;100937.13;4186593;28;20392;-82
2023/03/06 00:43:38;;;;;;;16.42;9.73;;;5.30;99.90;;;4.34;88.53;100938.81;4196882;28;20107;-82
2023/03/06 00:45:39;;;;;;;15.77;9.18;;;5.30;99.90;;;4.37;88.45;100938.56;4185438;28;20017;-82
2023/03/06 00:47:41;;;;;;;15.45;8.88;;;5.30;99.90;;;4.29;88.80;100917.44;4188877;28;20028;-82
2023/03/06 00:49:45;;;;;;;15.27;9.30;;;5.30;99.90;;;4.27;88.85;100921.09;4193193;28;20036;-82
2023/03/06 00:51:46;;;;;;;19.33;10.25;;;5.30;99.90;;;4.26;89.21;100917.66;4190017;28;20021;-82
2023/03/06 00:53:47;;;;;;;17.60;9.68;;;5.30;99.90;;;4.32;89.21;100930.25;4202176;28;20480;-82
2023/03/06 00:55:50;;;;;;;19.63;10.82;;;5.30;99.90;;;4.37;89.08;100941.19;4186586;28;20024;-82
2023/03/06 00:57:50;;;;;;;16.20;10.30;;;5.30;99.90;;;4.25;89.34;100929.03;4192166;28;20025;-82
2023/03/06 00:59:51;;;;;;;18.45;11.27;;;5.30;99.90;;;4.22;89.50;100929.25;4186599;28;20024;-82
2023/03/06 01:01:53;;;;;;;14.55;9.88;;;5.30;99.90;;;4.27;90.01;100934.97;4201563;28;20029;-82
2023/03/06 01:03:54;;;;;;;17.58;11.75;;;5.30;99.90;;;4.23;89.81;100930.91;4185934;28;20028;-82
2023/03/06 01:05:55;;;;;;;19.55;9.93;;;5.30;99.90;;;4.18;90.22;100919.97;4192711;28;20025;-82
2023/03/06 01:07:56;;;;;;;15.48;9.30;;;5.30;99.90;;;4.22;90.50;100924.03;4195141;28;20065;-82
2023/03/06 01:09:57;;;;;;;15.65;9.55;;;5.30;99.90;;;4.17;90.64;100912.25;4201523;28;20432;-81
2023/03/06 01:11:58;;;;;;;18.67;10.57;;;5.30;99.90;;;4.29;90.99;100934.88;4185979;28;20064;-82
2023/03/06 01:13:59;;;;;;;18.15;11.02;;;5.20;99.90;;;4.15;91.08;100911.53;4186166;28;20040;-83
2023/03/06 01:16:12;;;;;;;19.95;10.80;;;5.20;99.90;;;4.14;90.99;100913.31;4195126;28;20017;-82
2023/03/06 01:18:14;;;;;;;19.27;11.60;;;5.20;99.90;;;4.11;91.46;100913.53;4201227;28;20024;-82
2023/03/06 01:20:17;;;;;;;21.40;12.48;;;5.20;99.90;;;4.11;91.63;100908.31;4201208;28;20438;-81
2023/03/06 01:22:17;;;;;;;16.10;10.50;;;5.20;99.90;;;4.13;91.94;100902.97;4184917;28;20083;-82
2023/03/06 01:24:18;;;;;;;16.13;10.07;;;5.20;99.90;;;4.12;92.52;100909.16;4185884;28;20488;-81
2023/03/06 01:26:19;;;;;;;18.75;10.63;;;5.20;99.90;;;4.15;92.60;100925.41;4199189;28;20028;-82
2023/03/06 01:28:20;;;;;;;16.80;10.85;;;5.20;99.90;;;4.14;92.97;100920.31;4189310;28;20033;-82
2023/03/06 01:30:21;;;;;;;19.42;10.68;;;5.20;99.90;;;4.10;93.26;100917.06;4184647;28;20029;-82
2023/03/06 01:32:22;;;;;;;24.85;13.07;;;5.20;99.90;;;4.04;93.91;100906.22;4187818;28;20020;-82
2023/03/06 01:34:23;;;;;;;20.98;12.63;;;5.10;99.90;;;4.15;94.37;100927.19;4185276;28;20029;-82
2023/03/06 01:36:24;;;;;;;26.30;12.73;;;5.20;99.90;;;4.15;94.68;100921.97;4188283;28;20053;-82
2023/03/06 01:38:24;;;;;;;20.63;11.82;;;5.10;99.90;;;4.02;94.97;100895.09;4193492;28;20087;-82
2023/03/06 01:40:25;;;;;;;19.38;11.77;;;5.20;99.90;;;4.12;95.61;100923.00;4185597;28;20382;-82
2023/03/06 01:42:26;;;;;;;20.65;11.43;;;5.10;99.90;;;4.08;95.40;100915.53;4185498;28;20044;-82
2023/03/06 01:44:27;;;;;;;20.13;11.50;;;5.20;99.90;;;4.06;95.85;100913.00;4188366;28;20036;-82
2023/03/06 01:46:42;;;;;;;19.60;13.00;;;5.20;99.90;;;4.18;96.08;100932.19;4170772;28;20021;-82
2023/03/06 01:48:45;;;;;;;25.13;12.70;;;5.10;99.90;;;3.99;96.53;100906.56;4188357;28;20033;-81
2023/03/06 01:50:47;;;;;;;20.37;10.40;;;5.10;99.90;;;4.02;96.63;100908.97;4199912;28;20058;-82
2023/03/06 01:52:53;;;;;;;24.42;13.30;;;5.10;99.90;;;4.14;96.83;100920.31;4184318;28;20334;-82
2023/03/06 01:55:01;;;;;;;21.15;12.60;;;5.10;99.90;;;4.12;97.23;100917.78;4185361;28;20507;-82
2023/03/06 01:57:16;;;;;;;22.88;12.73;;;5.10;99.90;;;4.00;97.44;100890.00;4191096;28;20399;-82
2023/03/06 01:59:19;;;;;;;25.13;13.15;;;5.10;99.90;;;4.11;98.31;100917.91;4185648;28;20025;-81
2023/03/06 02:01:20;;;;;;;23.08;12.75;;;5.10;99.90;;;4.10;97.75;100913.63;4194168;28;20024;-81
2023/03/06 02:03:25;;;;;;;20.95;11.93;;;5.10;99.90;;;4.10;98.33;100908.41;4185416;28;20035;-82
2023/03/06 02:05:26;;;;;;;27.90;13.52;;;5.10;99.90;;;4.04;98.93;100904.47;4185197;28;20031;-82
2023/03/06 02:07:28;;;;;;;22.10;12.85;;;5.00;99.90;;;4.00;99.25;100896.97;4200712;28;20040;-81
2023/03/06 02:09:31;;;;;;;27.25;13.88;;;5.10;99.90;;;3.99;99.01;100890.91;4184208;28;20017;-81
2023/03/06 02:11:32;;;;;;;25.73;14.35;;;5.10;99.90;;;3.97;99.41;100892.81;4198574;28;20079;-82
2023/03/06 02:13:35;;;;;;;21.60;12.18;;;5.00;99.90;;;3.95;99.66;100884.25;4183789;28;20049;-82
2023/03/06 02:15:36;;;;;;;24.50;12.60;;;5.00;99.90;;;4.01;100.00;100898.63;4192068;28;20498;-81
2023/03/06 02:17:37;;;;;;;25.70;14.43;;;5.00;99.90;;;3.97;100.00;100895.44;4194790;28;20012;-82
2023/03/06 02:20:04;;;;;;;20.08;12.60;;;5.00;99.90;;;3.99;100.00;100901.38;4186789;28;20025;-82
2023/03/06 02:22:06;;;;;;;22.48;12.43;;;5.00;99.90;;;3.92;100.00;100884.47;4174426;28;20037;-82
2023/03/06 02:24:44;;;;;;;21.83;13.43;;;5.00;99.90;;;4.00;100.00;100897.81;4195396;28;20086;-81
2023/03/06 02:26:47;;;;;;;25.50;13.85;;;5.00;99.90;;;3.99;100.00;100893.53;4189905;28;20058;-81
2023/03/06 02:28:48;;;;;;;23.05;13.43;;;5.00;99.90;;;4.01;100.00;100891.63;4192349;28;20039;-81
2023/03/06 02:30:51;;;;;;;22.15;13.27;;;5.00;99.90;;;3.89;100.00;100869.03;4196495;28;20027;-82
2023/03/06 02:32:53;;;;;;;22.73;13.35;;;5.00;99.90;;;3.91;100.00;100875.00;4198144;28;20029;-82
2023/03/06 02:34:57;;;;;;;23.83;14.57;;;5.00;99.90;;;3.83;100.00;100864.25;4184786;28;20029;-82
2023/03/06 02:37:03;;;;;;;26.77;14.18;;;5.00;99.90;;;3.84;100.00;100856.31;4193745;28;20031;-81
2023/03/06 02:39:05;;;;;;;24.08;14.23;;;5.00;99.90;;;3.97;100.00;100882.38;4186520;28;20036;-82
2023/03/06 02:41:08;;;;;;;22.48;11.88;;;5.00;99.90;;;3.91;100.00;100867.16;4171573;28;20025;-82
2023/03/06 02:43:11;;;;;;;29.52;14.93;;;5.00;99.90;;;3.97;100.00;100874.56;4183954;28;20516;-82
2023/03/06 02:45:16;;;;;;;22.17;13.43;;;5.00;99.90;;;4.04;100.00;100874.91;4178623;28;20036;-82
2023/03/06 02:47:17;;;;;;;26.65;14.18;;;5.00;99.90;;;3.95;100.00;100868.59;4198685;28;20032;-80
2023/03/06 02:49:18;;;;;;;26.48;14.52;;;5.00;99.90;;;3.93;100.00;100870.47;4195090;28;20032;-81
2023/03/06 02:51:19;;;;;;;24.17;13.73;;;5.00;99.90;;;3.81;100.00;100850.50;4200420;28;20063;-82
2023/03/06 02:53:20;;;;;;;24.90;14.43;;;5.00;99.90;;;3.85;100.00;100852.75;4184155;28;20029;-81
2023/03/06 02:55:21;;;;;;;23.70;13.25;;;5.00;99.90;;;3.91;100.00;100865.34;4197001;28;20120;-81
2023/03/06 02:57:22;;;;;;;27.83;14.35;;;5.00;99.90;;;3.82;100.00;100849.56;4189011;28;20044;-82
2023/03/06 02:59:23;;;;;;;29.10;15.70;;;4.90;99.90;;;3.77;100.00;100843.81;4183526;28;20033;-81
2023/03/06 03:01:24;;;;;;;23.95;13.57;;;4.90;99.90;;;3.72;100.00;100841.56;4200523;28;20020;-81
2023/03/06 03:03:25;;;;;;;24.63;14.35;;;4.90;99.90;;;3.75;100.00;100833.50;4183676;28;20471;-81
2023/03/06 03:05:25;;;;;;;25.33;13.63;;;4.90;99.90;;;3.72;100.00;100833.72;4170612;28;20044;-82
2023/03/06 03:07:26;;;;;;;25.95;13.60;;;4.90;99.90;;;3.76;100.00;100836.94;4179787;28;20424;-82
2023/03/06 03:09:27;;;;;;;25.40;15.13;;;4.90;99.90;;;3.83;100.00;100845.97;4201559;28;20078;-81
2023/03/06 03:11:28;;;;;;;24.65;15.02;;;4.90;99.90;;;3.83;100.00;100851.19;4186584;28;20029;-81
2023/03/06 03:13:29;;;;;;;26.38;14.07;;;4.90;99.90;;;3.82;100.00;100852.16;4186304;28;20496;-82
2023/03/06 03:15:30;;;;;;;25.25;14.40;;;4.90;99.90;;;3.85;100.00;100849.34;4203452;28;20017;-82
2023/03/06 03:17:38;;;;;;;24.50;14.85;;;4.90;99.90;;;3.82;100.00;100844.34;4186896;28;20024;-81
2023/03/06 03:19:40;;;;;;;23.77;14.35;;;4.90;99.90;;;3.91;100.00;100854.13;4201842;28;20033;-81
2023/03/06 03:21:41;;;;;;;22.42;13.43;;;4.90;99.90;;;3.80;99.60;100843.59;4199384;28;20402;-81
2023/03/06 03:23:42;;;;;;;26.98;14.38;;;4.90;99.90;;;3.88;99.46;100856.94;4177491;28;20079;-80
2023/03/06 03:25:42;;;;;;;24.42;14.45;;;4.90;99.90;;;3.80;99.42;100841.00;4203196;28;20480;-81
2023/03/06 03:27:44;;;;;;;24.75;14.05;;;4.90;99.90;;;3.81;99.63;100834.84;4199201;28;20054;-81
2023/03/06 03:29:44;;;;;;;25.88;13.32;;;4.90;99.90;;;3.88;99.40;100838.69;4187665;28;20075;-81
2023/03/06 03:31:45;;;;;;;26.45;12.38;;;4.90;99.90;;;3.78;99.52;100829.84;4193900;28;20101;-81
2023/03/06 03:33:46;;;;;;;23.40;13.15;;;4.90;99.90;;;3.86;99.00;100835.31;4204287;28;20017;-82
2023/03/06 03:35:59;;;;;;;24.15;14.43;;;4.90;99.90;;;3.83;98.39;100828.56;4190487;28;20029;-81
2023/03/06 03:38:02;;;;;;;23.27;13.02;;;4.90;99.90;;;3.78;98.05;100827.22;4184003;28;20488;-81
2023/03/06 03:40:05;;;;;;;27.85;13.35;;;4.90;99.90;;;3.78;98.08;100829.84;4194942;28;20025;-82
2023/03/06 03:42:06;;;;;;;26.77;13.20;;;4.90;99.90;;;3.81;98.26;100827.84;4186550;28;20117;-82
2023/03/06 03:44:08;;;;;;;27.77;13.70;;;4.90;99.90;;;3.72;97.82;100820.69;4186174;28;20029;-82
2023/03/06 03:46:09;;;;;;;21.77;12.45;;;4.80;99.90;;;3.77;97.80;100821.16;4197208;28;20472;-81
2023/03/06 03:48:10;;;;;;;29.25;14.60;;;4.80;99.90;;;3.76;97.63;100823.91;4177150;28;20033;-81
2023/03/06 03:50:12;;;;;;;24.48;13.63;;;4.80;99.90;;;3.68;97.54;100818.38;4187349;28;20028;-81
2023/03/06 03:52:12;;;;;;;25.90;14.60;;;4.80;99.90;;;3.70;97.85;100817.31;4187163;28;20028;-82
2023/03/06 03:54:13;;;;;;;24.67;15.00;;;4.80;99.90;;;3.76;97.83;100827.31;4191102;28;20078;-81
2023/03/06 03:56:15;;;;;;;20.63;12.07;;;4.80;99.90;;;3.77;97.40;100817.72;4186304;28;20550;-81
2023/03/06 03:58:15;;;;;;;25.92;13.25;;;4.80;99.90;;;3.70;97.36;100811.31;4207548;28;20388;-81
2023/03/06 04:00:17;;;;;;;23.17;12.45;;;4.80;99.90;;;3.81;97.71;100822.63;4200754;28;20032;-82
2023/03/06 04:02:20;;;;;;;23.85;12.95;;;4.80;99.90;;;3.80;97.27;100823.56;4186121;28;20547;-82
2023/03/06 04:04:21;;;;;;;22.58;13.60;;;4.80;99.90;;;3.71;97.32;100803.34;4193837;28;20036;-82
2023/03/06 04:06:22;;;;;;;22.52;12.73;;;4.80;99.90;;;3.79;97.80;100808.03;4204035;28;20540;-82
2023/03/06 04:08:24;;;;;;;22.30;12.77;;;4.80;99.90;;;3.73;97.43;100795.44;4186037;28;20033;-81
2023/03/06 04:10:25;;;;;;;26.27;14.10;;;4.80;99.90;;;3.82;97.84;100792.97;4190594;28;20116;-82
2023/03/06 04:12:26;;;;;;;27.23;14.00;;;4.80;99.90;;;3.73;97.82;100777.16;4187209;28;20049;-82
2023/03/06 04:14:27;;;;;;;22.25;13.35;;;4.80;99.90;;;3.65;97.34;100767.28;4202446;28;20048;-82
2023/03/06 04:16:28;;;;;;;27.63;13.20;;;4.80;99.90;;;3.75;96.90;100772.66;4183269;28;20025;-82
2023/03/06 04:18:29;;;;;;;23.48;13.25;;;4.80;99.90;;;3.64;97.36;100770.00;4198334;28;20025;-82
2023/03/06 04:20:30;;;;;;;26.10;13.07;;;4.80;99.90;;;3.60;96.90;100758.97;4176281;28;20026;-82
2023/03/06 04:22:31;;;;;;;25.00;13.35;;;4.80;99.90;;;3.63;96.85;100760.50;4186794;28;20029;-82
2023/03/06 04:24:31;;;;;;;22.40;12.77;;;4.80;99.90;;;3.61;96.27;100745.00;4187939;28;20080;-82
2023/03/06 04:26:32;;;;;;;24.60;12.77;;;4.80;99.90;;;3.61;96.25;100744.16;4192572;28;20044;-82
2023/03/06 04:28:34;;;;;;;26.08;13.00;;;4.70;99.90;;;3.64;95.96;100754.34;4196757;28;20036;-82
2023/03/06 04:30:35;;;;;;;23.42;13.40;;;4.70;99.90;;;3.67;95.67;100754.13;4202041;28;20032;-82
2023/03/06 04:32:36;;;;;;;24.27;14.10;;;4.80;99.90;;;3.72;94.85;100776.34;4186565;28;20036;-82
2023/03/06 04:34:37;;;;;;;24.63;12.65;;;4.80;99.90;;;3.68;94.95;100763.59;4188547;28;20033;-82
2023/03/06 04:36:38;;;;;;;21.10;12.80;;;4.80;99.90;;;3.73;94.94;100769.34;4188789;28;20598;-82
2023/03/06 04:38:38;;;;;;;28.65;13.43;;;4.80;99.90;;;3.61;94.76;100767.63;4202043;28;20565;-82
2023/03/06 04:40:39;;;;;;;27.38;14.18;;;4.70;99.90;;;3.58;94.13;100773.06;4219303;28;20028;-82
2023/03/06 04:42:40;;;;;;;23.60;12.57;;;4.70;99.90;;;3.55;94.49;100766.28;4203119;28;20111;-82
2023/03/06 04:44:41;;;;;;;23.40;12.20;;;4.70;99.90;;;3.67;93.98;100785.44;4196581;28;20029;-82
2023/03/06 04:46:42;;;;;;;20.67;12.95;;;4.70;99.90;;;3.70;94.43;100786.03;4188649;28;20498;-82
2023/03/06 04:48:43;;;;;;;23.40;12.70;;;4.70;99.90;;;3.62;94.40;100774.50;4190312;28;20033;-82
2023/03/06 04:50:44;;;;;;;22.13;12.70;;;4.70;99.90;;;3.57;94.19;100771.38;4200713;28;20107;-82
2023/03/06 04:52:46;;;;;;;21.92;12.90;;;4.70;99.90;;;3.67;94.41;100791.50;4191974;28;20050;-82
2023/03/06 04:54:46;;;;;;;22.88;12.68;;;4.60;99.90;;;3.55;94.67;100770.69;4186327;28;20068;-82
2023/03/06 04:56:47;;;;;;;23.50;12.05;;;4.60;99.90;;;3.57;94.89;100769.63;4197942;28;20020;-82
2023/03/06 04:58:48;;;;;;;25.88;14.02;;;4.60;99.90;;;3.51;94.06;100756.19;4185414;28;20459;-82
2023/03/06 05:00:49;;;;;;;22.23;11.93;;;4.60;99.90;;;3.50;94.36;100751.91;4186331;28;20028;-82
2023/03/06 05:02:51;;;;;;;22.27;13.68;;;4.60;99.90;;;3.61;94.23;100758.03;4185201;28;20024;-82
2023/03/06 05:04:52;;;;;;;22.65;11.40;;;4.60;99.90;;;3.59;93.59;100772.09;4197768;28;20116;-82
2023/03/06 05:06:52;;;;;;;22.05;13.05;;;4.60;99.90;;;3.59;93.54;100772.94;4186725;28;20033;-82
2023/03/06 05:08:54;;;;;;;24.63;12.70;;;4.60;99.90;;;3.50;93.68;100757.13;4191130;28;20039;-82
2023/03/06 05:11:00;;;;;;;22.65;12.95;;;4.60;99.90;;;3.52;93.40;100765.69;4185001;28;20029;-82
2023/03/06 05:13:01;;;;;;;23.38;13.05;;;4.60;99.90;;;3.47;93.91;100757.34;4181716;28;20055;-82
2023/03/06 05:15:03;;;;;;;19.27;11.48;;;4.60;99.90;;;3.57;93.29;100784.44;4171893;28;20425;-82
2023/03/06 05:17:04;;;;;;;20.35;11.25;;;4.60;99.90;;;3.43;93.73;100755.91;4199135;28;20029;-82
2023/03/06 05:19:05;;;;;;;22.73;12.90;;;4.60;99.90;;;3.58;93.25;100786.09;4191046;28;20018;-82
2023/03/06 05:21:06;;;;;;;20.38;12.23;;;4.60;99.90;;;3.43;93.19;100759.34;4184858;28;20075;-82
2023/03/06 05:23:07;;;;;;;20.38;12.30;;;4.60;99.90;;;3.44;93.58;100747.97;4188232;28;20543;-82
2023/03/06 05:25:09;;;;;;;20.48;11.23;;;4.60;99.90;;;3.46;93.16;100766.97;4194872;28;20037;-82
2023/03/06 05:27:10;;;;;;;22.27;11.82;;;4.60;99.90;;;3.58;93.38;100770.47;4195560;28;20528;-82
2023/03/06 05:29:11;;;;;;;21.83;12.13;;;4.60;99.90;;;3.55;93.01;100773.28;4191588;28;20036;-82
2023/03/06 05:31:12;;;;;;;25.83;13.20;;;4.60;99.90;;;3.56;93.11;100774.94;4200901;28;20086;-83
2023/03/06 05:33:13;;;;;;;22.30;11.98;;;4.60;99.90;;;3.51;93.48;100764.84;4194810;28;20515;-82
2023/03/06 05:35:22;;;;;;;20.80;11.02;;;4.60;99.90;;;3.62;93.25;100777.94;4193166;28;20040;-82
2023/03/06 05:37:23;;;;;;;20.10;12.07;;;4.60;99.90;;;3.50;93.25;100760.56;4191843;28;20025;-82
2023/03/06 05:39:24;;;;;;;23.10;11.65;;;4.60;99.90;;;3.50;93.01;100760.56;4184673;28;20048;-82
2023/03/06 05:41:25;;;;;;;20.77;12.48;;;4.60;99.90;;;3.48;92.64;100764.22;4200987;28;20030;-82
2023/03/06 05:43:25;;;;;;;18.98;11.02;;;4.60;99.90;;;3.57;92.44;100781.81;4178723;28;20021;-82
2023/03/06 05:45:26;;;;;;;22.45;11.05;;;4.60;99.90;;;3.57;92.60;100782.66;4188095;28;20029;-82
2023/03/06 05:47:27;;;;;;;19.20;11.02;;;4.60;99.90;;;3.51;93.13;100774.44;4191826;28;20024;-82
2023/03/06 05:49:33;;;;;;;20.17;11.45;;;4.60;99.90;;;3.49;92.92;100777.16;4201883;28;20039;-82
2023/03/06 05:51:34;;;;;;;21.60;12.50;;;4.60;99.90;;;3.47;92.66;100762.56;4184206;28;20053;-82
2023/03/06 05:53:35;;;;;;;22.13;11.80;;;4.60;99.90;;;3.48;92.52;100770.28;4191028;28;20025;-82
2023/03/06 05:55:35;;;;;;;19.95;10.88;;;4.60;99.90;;;3.44;92.41;100762.75;4184347;28;20040;-82
2023/03/06 05:57:36;;;;;;;19.88;11.43;;;4.60;99.90;;;3.51;92.46;100775.28;4186571;28;20032;-82
2023/03/06 05:59:37;;;;;;;27.42;11.70;;;4.60;99.90;;;3.57;92.29;100779.22;4200841;28;20107;-82
2023/03/06 06:01:38;;;;;;;22.50;11.40;;;4.60;99.90;;;3.47;92.30;100766.00;4185419;28;20044;-82
2023/03/06 06:03:39;;;;;;;19.85;11.52;;;4.60;99.90;;;3.50;91.70;100768.38;4185189;28;20090;-82
2023/03/06 06:05:40;;;;;;;21.15;11.43;;;4.60;99.90;;;3.49;91.31;100765.91;4184337;28;20025;-82
2023/03/06 06:07:41;;;;;;;21.75;11.85;;;4.60;99.90;;;3.58;91.25;100778.28;4193698;28;20206;-82
2023/03/06 06:09:44;;;;;;;21.65;11.65;;;4.60;99.90;;;3.60;91.43;100784.22;4188312;28;20033;-82
2023/03/06 06:11:45;;;;;;;20.48;11.98;;;4.60;99.90;;;3.48;91.52;100762.47;4185171;28;20108;-82
2023/03/06 06:13:47;;;;;;;22.05;11.45;;;4.60;99.90;;;3.56;91.33;100780.16;4189618;28;20048;-82
2023/03/06 06:15:49;;;;;;;20.25;12.00;;;4.60;99.90;;;3.57;91.11;100774.00;4185422;28;20515;-82
2023/03/06 06:17:50;;;;;;;19.48;11.23;;;4.60;99.90;;;3.55;91.45;100768.91;4196551;28;20058;-81
2023/03/06 06:19:51;;;;;;;21.55;10.93;;;4.60;99.90;;;3.50;91.11;100762.31;4167798;28;20025;-82
2023/03/06 06:21:53;;;;;;;19.80;11.65;;;4.60;99.90;;;3.51;91.07;100771.81;4184273;28;20029;-82
2023/03/06 06:23:53;;;;;;;20.58;11.20;;;4.60;99.90;;;3.46;90.96;100755.69;4176208;28;20435;-82
2023/03/06 06:25:54;;;;;;;19.08;11.45;;;4.60;99.90;;;3.51;90.59;100771.81;4200566;28;20028;-82
2023/03/06 06:27:56;;;;;;;20.42;11.45;;;4.60;99.90;;;3.56;90.32;100774.94;4199151;28;20043;-82
2023/03/06 06:29:57;;;;;;;19.08;11.25;;;4.60;99.90;;;3.52;90.54;100771.72;4195142;28;20029;-82
2023/03/06 06:31:59;;;;;;;18.50;10.85;;;4.60;99.90;;;3.52;90.11;100765.69;4201207;28;20074;-82
2023/03/06 06:33:59;;;;;;;20.98;11.38;;;4.60;99.90;;;3.56;90.22;100772.31;4189082;28;20025;-82
2023/03/06 06:36:00;;;;;;;17.95;10.45;;;4.60;99.90;;;3.65;90.20;100782.09;4184961;28;20029;-82
2023/03/06 06:38:01;;;;;;;18.80;10.27;;;4.60;99.90;;;3.68;90.08;100787.09;4195160;28;20029;-82
2023/03/06 06:40:03;;;;;;;17.27;10.18;;;4.60;99.90;;;3.57;90.43;100774.00;4192143;28;20040;-82
2023/03/06 06:42:04;;;;;;;21.60;10.95;;;4.60;99.90;;;3.55;90.63;100776.72;4197024;28;20059;-82
2023/03/06 06:44:10;;;;;;;22.60;11.75;;;4.60;99.90;;;3.60;91.46;100784.22;4185159;28;20041;-82
2023/03/06 06:46:10;;;;;;;18.67;10.38;;;4.60;99.90;;;3.51;90.90;100769.22;4184593;28;20032;-82
2023/03/06 06:48:11;;;;;;;18.98;11.05;;;4.60;99.90;;;3.59;91.01;100787.75;4191009;28;20037;-82
2023/03/06 06:50:13;;;;;;;21.25;11.18;;;4.70;99.90;;;3.55;91.01;100781.09;4182405;28;20055;-82
2023/03/06 06:52:14;;;;;;;20.92;11.07;;;4.60;99.90;;;3.59;90.79;100788.59;4187039;28;20066;-81
2023/03/06 06:54:15;;;;;;;20.42;10.93;;;4.60;99.90;;;3.55;91.16;100781.09;4203929;28;20218;-82
2023/03/06 06:56:16;;;;;;;15.40;8.38;;;4.70;99.90;;;3.49;91.30;100769.34;4195175;28;20048;-81
2023/03/06 06:58:17;;;;;;;17.48;9.95;;;4.70;99.90;;;3.57;91.64;100784.44;4203425;28;20031;-82
2023/03/06 07:00:19;;;;;;;21.35;10.95;;;4.60;99.90;;;3.67;91.12;100795.88;4188731;28;20119;-82
2023/03/06 07:02:21;;;;;;;17.42;10.32;;;4.70;99.90;;;3.71;91.68;100797.28;4191793;28;20028;-82
2023/03/06 07:04:22;;;;;;;18.40;10.57;;;4.70;99.90;;;3.61;91.23;100771.06;4188075;28;20056;-81
2023/03/06 07:06:22;;;;;;;17.20;10.35;;;4.70;99.90;;;3.68;91.28;100779.25;4189801;28;20033;-82
2023/03/06 07:08:23;;;;;;;18.63;11.77;;;4.70;99.90;;;3.73;90.77;100790.22;4188756;28;20032;-81
2023/03/06 07:10:24;;;;;;;20.83;11.35;;;4.70;99.90;;;3.77;90.61;100800.31;4186975;28;20021;-82
2023/03/06 07:12:25;;;;;;;20.35;12.95;;;4.80;99.90;;;3.71;90.29;100776.44;4194397;28;20479;-82
2023/03/06 07:14:26;;;;;;;24.00;12.90;;;4.80;99.90;;;3.80;89.86;100788.81;4203114;28;20116;-82
2023/03/06 07:16:27;;;;;;;23.13;12.65;;;4.80;99.90;;;3.73;89.75;100769.34;4189352;28;20465;-82
2023/03/06 07:18:28;;;;;;;24.13;13.85;;;4.80;99.90;;;3.91;89.32;100792.28;4187921;28;20029;-82
2023/03/06 07:20:30;;;;;;;24.13;12.63;;;4.90;99.90;;;3.89;88.31;100785.53;4187973;28;20031;-82
2023/03/06 07:22:32;;;;;;;19.42;11.98;;;4.90;99.90;;;3.86;88.48;100778.75;4186789;28;20021;-82
2023/03/06 07:24:33;;;;;;;20.33;11.23;;;4.90;99.90;;;3.93;88.21;100784.38;4202953;28;20040;-82
2023/03/06 07:26:34;;;;;;;23.60;12.70;;;5.00;99.90;;;3.97;87.36;100784.97;4194113;28;20424;-82
2023/03/06 07:28:35;;;;;;;17.88;10.48;;;5.00;99.90;;;4.04;86.89;100792.22;4193881;28;20381;-82
2023/03/06 07:30:36;;;;;;;17.90;10.10;;;5.10;99.90;;;4.09;86.49;100795.31;4186444;28;20083;-82
2023/03/06 07:32:37;;;;;;;23.67;11.82;;;5.10;99.90;;;4.16;86.41;100798.31;4187297;28;20029;-82
2023/03/06 07:34:37;;;;;;;20.35;10.95;;;5.20;99.90;;;4.13;85.46;100798.53;4189857;28;20040;-82
2023/03/06 07:36:39;;;;;;;21.23;11.82;;;5.20;99.90;;;4.22;85.24;100792.66;4192362;28;20074;-82
2023/03/06 07:38:40;;;;;;;19.30;10.43;;;5.20;99.90;;;4.36;84.80;100810.75;4193134;28;20025;-82
2023/03/06 07:40:41;;;;;;;15.23;9.63;;;5.30;99.90;;;4.35;85.09;100796.84;4186235;28;20103;-82
2023/03/06 07:42:42;;;;;;;21.52;11.32;;;5.30;99.90;;;4.38;84.83;100799.22;4202947;28;20075;-82
2023/03/06 07:44:43;;;;;;;18.92;11.05;;;5.40;99.90;;;4.48;84.42;100800.19;4192285;28;20031;-82
2023/03/06 07:46:43;;;;;;;18.50;9.95;;;5.40;99.90;;;4.54;83.43;100808.53;4191408;28;20416;-82
2023/03/06 07:48:44;;;;;;;18.60;10.55;;;5.50;99.90;;;4.57;83.29;100803.88;4190526;28;20025;-82
2023/03/06 07:50:59;;;;;;;21.83;10.82;;;5.50;99.90;;;4.63;82.94;100792.16;4186096;28;20104;-82
2023/03/06 07:53:00;;;;;;;;;;;5.70;99.90;;;4.56;82.00;100801.41;4187932;28;20025;-82
2023/03/06 07:55:01;;;;;;;20.23;9.73;;;5.70;99.90;;;4.70;82.14;100812.47;4185933;28;20385;-81
2023/03/06 07:57:02;;;;;;;20.63;10.02;;;5.80;99.90;;;4.68;81.51;100796.09;4199577;28;20549;-82
2023/03/06 07:59:03;;;;;;;20.95;10.05;;;5.70;99.90;;;4.69;81.32;100782.03;4180623;28;20017;-82
2023/03/06 08:01:09;;;;;;;17.83;10.25;;;5.80;99.90;;;4.83;80.67;100800.13;4187743;28;20400;-82
2023/03/06 08:03:14;;;;;;;15.30;9.45;;;5.80;99.90;;;4.92;80.27;100798.59;4197417;28;20077;-82
2023/03/06 08:05:16;;;;;;;19.23;10.48;;;5.90;99.90;;;4.91;80.29;100792.53;4184545;28;20037;-82
2023/03/06 08:07:17;;;;;;;19.48;10.05;;;6.00;99.90;;;5.11;79.76;100811.06;4189645;28;20064;-82
2023/03/06 08:09:18;;;;;;;19.70;10.18;;;6.00;99.90;;;5.01;79.11;100796.09;4185814;28;20029;-82
2023/03/06 08:11:23;;;;;;;16.15;9.20;;;6.10;99.90;;;5.08;78.80;100799.03;4187067;28;20392;-82
2023/03/06 08:13:24;;;;;;;19.45;9.77;;;6.10;99.90;;;5.05;78.44;100788.81;4201425;28;20052;-82
2023/03/06 08:15:25;;;;;;;16.75;9.45;;;6.20;99.90;;;5.13;77.67;100796.09;4186873;28;20033;-82
2023/03/06 08:17:26;;;;;;;19.15;9.88;;;6.20;99.90;;;5.23;77.58;100792.63;4187439;28;20017;-82
2023/03/06 08:19:27;;;;;;;16.75;9.60;;;6.30;99.90;;;5.27;77.88;100786.22;4186690;28;20049;-82
2023/03/06 08:21:28;;;;;;;17.02;10.40;;;6.30;99.90;;;5.43;77.18;100798.91;4200981;28;20094;-82
2023/03/06 08:23:30;;;;;;;18.17;10.10;;;6.40;99.90;;;5.54;76.51;100807.56;4185882;28;20021;-82
2023/03/06 08:25:30;;;;;;;20.27;10.40;;;6.40;99.90;;;5.61;75.98;100807.06;4195239;28;20040;-82
2023/03/06 08:27:33;;;;;;;22.08;10.20;;;6.50;99.90;;;5.57;76.10;100781.16;4203454;28;20028;-82